sensor_id;sensor_type;location;lat;lon;timestamp;pressure;altitude;pressure_sealevel;temperature;humidity
21640;BME280;10981;45.462;10.974;2022-07-30T00:00:35;100406.00;;;20.64;100.00
21640;BME280;10981;45.462;10.974;2022-07-30T00:03:04;100403.56;;;20.63;100.00
21640;BME280;10981;45.462;10.974;2022-07-30T00:05:33;100403.56;;;20.63;100.00
21640;BME280;10981;45.462;10.974;2022-07-30T00:08:01;100390.03;;;20.57;100.00
21640;BME280;10981;45.462;10.974;2022-07-30T00:10:29;100385.13;;;20.54;100.00
21640;BME280;10981;45.462;10.974;2022-07-30T00:12:57;100382.91;;;20.58;100.00
21640;BME280;10981;45.462;10.974;2022-07-30T00:15:26;100382.25;;;20.56;100.00
21640;BME280;10981;45.462;10.974;2022-07-30T00:17:54;100375.50;;;20.53;100.00
21640;BME280;10981;45.462;10.974;2022-07-30T00:20:23;100374.66;;;20.46;100.00
21640;BME280;10981;45.462;10.974;2022-07-30T00:22:55;100376.25;;;20.40;100.00
21640;BME280;10981;45.462;10.974;2022-07-30T00:25:23;100376.41;;;20.32;100.00
21640;BME280;10981;45.462;10.974;2022-07-30T00:27:52;100369.50;;;20.38;100.00
21640;BME280;10981;45.462;10.974;2022-07-30T00:30:20;100372.38;;;20.36;100.00
21640;BME280;10981;45.462;10.974;2022-07-30T00:32:49;100369.44;;;20.31;100.00
21640;BME280;10981;45.462;10.974;2022-07-30T00:35:18;100376.81;;;20.29;100.00
21640;BME280;10981;45.462;10.974;2022-07-30T00:37:46;100370.72;;;20.35;100.00
21640;BME280;10981;45.462;10.974;2022-07-30T00:40:14;100368.22;;;20.34;100.00
21640;BME280;10981;45.462;10.974;2022-07-30T00:42:46;100374.16;;;20.29;100.00
21640;BME280;10981;45.462;10.974;2022-07-30T00:45:16;100370.66;;;20.29;100.00
21640;BME280;10981;45.462;10.974;2022-07-30T00:47:44;100381.91;;;20.31;100.00
21640;BME280;10981;45.462;10.974;2022-07-30T00:50:13;100375.38;;;20.27;100.00
21640;BME280;10981;45.462;10.974;2022-07-30T00:52:43;100380.66;;;20.20;100.00
21640;BME280;10981;45.462;10.974;2022-07-30T00:55:13;100379.09;;;20.04;100.00
21640;BME280;10981;45.462;10.974;2022-07-30T00:57:42;100376.41;;;19.97;100.00
21640;BME280;10981;45.462;10.974;2022-07-30T01:00:14;100383.59;;;19.82;100.00
21640;BME280;10981;45.462;10.974;2022-07-30T01:02:43;100383.59;;;19.82;100.00
21640;BME280;10981;45.462;10.974;2022-07-30T01:05:12;100380.13;;;19.81;100.00
21640;BME280;10981;45.462;10.974;2022-07-30T01:07:41;100379.38;;;19.87;100.00
21640;BME280;10981;45.462;10.974;2022-07-30T01:10:14;100377.94;;;19.85;100.00
21640;BME280;10981;45.462;10.974;2022-07-30T01:12:43;100383.59;;;19.82;100.00
21640;BME280;10981;45.462;10.974;2022-07-30T01:15:12;100382.03;;;19.87;100.00
21640;BME280;10981;45.462;10.974;2022-07-30T01:17:41;100380.13;;;19.81;100.00
21640;BME280;10981;45.462;10.974;2022-07-30T01:20:15;100384.81;;;19.79;100.00
21640;BME280;10981;45.462;10.974;2022-07-30T01:28:03;100393.28;;;19.68;100.00
21640;BME280;10981;45.462;10.974;2022-07-30T01:30:39;100385.69;;;19.65;100.00
21640;BME280;10981;45.462;10.974;2022-07-30T01:33:12;100394.81;;;19.55;100.00
21640;BME280;10981;45.462;10.974;2022-07-30T01:35:43;100386.16;;;19.47;100.00
21640;BME280;10981;45.462;10.974;2022-07-30T01:38:14;100381.66;;;19.47;100.00
21640;BME280;10981;45.462;10.974;2022-07-30T01:40:44;100372.06;;;19.46;100.00
21640;BME280;10981;45.462;10.974;2022-07-30T01:43:14;100385.50;;;19.44;100.00
21640;BME280;10981;45.462;10.974;2022-07-30T01:45:46;100379.00;;;19.47;100.00
21640;BME280;10981;45.462;10.974;2022-07-30T01:48:20;100387.03;;;19.54;100.00
21640;BME280;10981;45.462;10.974;2022-07-30T01:50:51;100377.00;;;19.49;100.00
21640;BME280;10981;45.462;10.974;2022-07-30T01:53:26;100367.59;;;19.47;100.00
21640;BME280;10981;45.462;10.974;2022-07-30T01:55:59;100376.94;;;19.42;100.00
21640;BME280;10981;45.462;10.974;2022-07-30T01:58:31;100368.28;;;19.34;100.00
21640;BME280;10981;45.462;10.974;2022-07-30T02:01:14;100360.13;;;19.35;100.00
21640;BME280;10981;45.462;10.974;2022-07-30T02:03:42;100365.25;;;19.37;100.00
21640;BME280;10981;45.462;10.974;2022-07-30T02:06:21;100363.88;;;19.41;100.00
21640;BME280;10981;45.462;10.974;2022-07-30T02:09:02;100361.72;;;19.30;100.00
21640;BME280;10981;45.462;10.974;2022-07-30T02:11:44;100358.22;;;19.29;100.00
21640;BME280;10981;45.462;10.974;2022-07-30T02:14:47;100352.66;;;19.24;100.00
21640;BME280;10981;45.462;10.974;2022-07-30T02:17:22;100359.31;;;19.35;100.00
21640;BME280;10981;45.462;10.974;2022-07-30T02:20:02;100368.22;;;19.27;100.00
21640;BME280;10981;45.462;10.974;2022-07-30T02:22:40;100368.59;;;19.24;100.00
21640;BME280;10981;45.462;10.974;2022-07-30T02:25:09;100359.22;;;19.28;100.00
21640;BME280;10981;45.462;10.974;2022-07-30T02:27:41;100354.78;;;19.28;100.00
21640;BME280;10981;45.462;10.974;2022-07-30T02:30:10;100363.09;;;19.25;100.00
21640;BME280;10981;45.462;10.974;2022-07-30T02:32:42;100363.78;;;19.13;100.00
21640;BME280;10981;45.462;10.974;2022-07-30T02:35:21;100368.50;;;18.95;100.00
21640;BME280;10981;45.462;10.974;2022-07-30T02:37:52;100365.47;;;18.99;100.00
21640;BME280;10981;45.462;10.974;2022-07-30T02:40:23;100362.81;;;18.99;100.00
21640;BME280;10981;45.462;10.974;2022-07-30T02:42:52;100361.72;;;19.08;100.00
21640;BME280;10981;45.462;10.974;2022-07-30T02:45:25;100360.13;;;19.14;100.00
21640;BME280;10981;45.462;10.974;2022-07-30T02:48:04;100361.75;;;19.15;100.00
21640;BME280;10981;45.462;10.974;2022-07-30T02:50:39;100359.22;;;19.06;100.00
21640;BME280;10981;45.462;10.974;2022-07-30T02:53:11;100364.34;;;19.08;100.00
21640;BME280;10981;45.462;10.974;2022-07-30T02:55:42;100376.72;;;19.01;100.00
21640;BME280;10981;45.462;10.974;2022-07-30T02:58:18;100370.13;;;18.82;100.00
21640;BME280;10981;45.462;10.974;2022-07-30T03:00:50;100363.56;;;18.77;100.00
21640;BME280;10981;45.462;10.974;2022-07-30T03:03:22;100361.72;;;18.78;100.00
21640;BME280;10981;45.462;10.974;2022-07-30T03:05:56;100354.63;;;18.78;100.00
21640;BME280;10981;45.462;10.974;2022-07-30T03:08:26;100360.47;;;18.74;100.00
21640;BME280;10981;45.462;10.974;2022-07-30T03:10:56;100354.63;;;18.63;100.00
21640;BME280;10981;45.462;10.974;2022-07-30T03:13:25;100361.66;;;18.71;100.00
21640;BME280;10981;45.462;10.974;2022-07-30T03:15:56;100365.66;;;18.82;100.00
21640;BME280;10981;45.462;10.974;2022-07-30T03:18:29;100372.25;;;18.86;100.00
21640;BME280;10981;45.462;10.974;2022-07-30T03:21:00;100378.53;;;18.85;100.00
21640;BME280;10981;45.462;10.974;2022-07-30T03:23:33;100384.66;;;19.01;100.00
21640;BME280;10981;45.462;10.974;2022-07-30T03:26:07;100382.06;;;19.07;100.00
21640;BME280;10981;45.462;10.974;2022-07-30T03:28:38;100386.38;;;19.08;100.00
21640;BME280;10981;45.462;10.974;2022-07-30T03:31:08;100390.88;;;19.08;100.00
21640;BME280;10981;45.462;10.974;2022-07-30T03:33:39;100381.53;;;19.12;100.00
21640;BME280;10981;45.462;10.974;2022-07-30T03:36:11;100388.28;;;19.15;100.00
21640;BME280;10981;45.462;10.974;2022-07-30T03:38:41;100383.53;;;19.10;100.00
21640;BME280;10981;45.462;10.974;2022-07-30T03:41:11;100385.19;;;19.11;100.00
21640;BME280;10981;45.462;10.974;2022-07-30T03:43:44;100387.69;;;18.98;100.00
21640;BME280;10981;45.462;10.974;2022-07-30T03:46:14;100387.94;;;18.88;100.00
21640;BME280;10981;45.462;10.974;2022-07-30T03:48:46;100383.31;;;18.75;100.00
21640;BME280;10981;45.462;10.974;2022-07-30T03:51:16;100379.63;;;18.76;100.00
21640;BME280;10981;45.462;10.974;2022-07-30T03:53:46;100386.69;;;18.69;100.00
21640;BME280;10981;45.462;10.974;2022-07-30T03:56:30;100394.38;;;18.63;100.00
21640;BME280;10981;45.462;10.974;2022-07-30T03:59:10;100402.88;;;18.59;100.00
21640;BME280;10981;45.462;10.974;2022-07-30T04:01:40;100394.91;;;18.59;100.00
21640;BME280;10981;45.462;10.974;2022-07-30T04:04:24;100400.69;;;18.62;100.00
21640;BME280;10981;45.462;10.974;2022-07-30T04:06:53;100401.88;;;18.60;100.00
21640;BME280;10981;45.462;10.974;2022-07-30T04:09:22;100409.16;;;18.58;100.00
21640;BME280;10981;45.462;10.974;2022-07-30T04:11:50;100418.50;;;18.54;100.00
21640;BME280;10981;45.462;10.974;2022-07-30T04:14:24;100413.09;;;18.47;100.00
21640;BME280;10981;45.462;10.974;2022-07-30T04:17:39;100422.31;;;18.51;100.00
21640;BME280;10981;45.462;10.974;2022-07-30T04:19:48;100419.31;;;18.54;100.00
21640;BME280;10981;45.462;10.974;2022-07-30T04:22:33;100427.09;;;18.56;100.00
21640;BME280;10981;45.462;10.974;2022-07-30T04:25:03;100421.50;;;18.66;100.00
21640;BME280;10981;45.462;10.974;2022-07-30T04:27:34;100431.38;;;18.72;100.00
21640;BME280;10981;45.462;10.974;2022-07-30T04:30:03;100434.19;;;18.85;100.00
21640;BME280;10981;45.462;10.974;2022-07-30T04:32:38;100440.41;;;18.92;100.00
21640;BME280;10981;45.462;10.974;2022-07-30T04:35:09;100434.28;;;19.07;100.00
21640;BME280;10981;45.462;10.974;2022-07-30T04:38:07;100424.00;;;19.19;100.00
21640;BME280;10981;45.462;10.974;2022-07-30T04:40:39;100429.47;;;19.32;100.00
21640;BME280;10981;45.462;10.974;2022-07-30T04:43:07;100423.22;;;19.40;100.00
21640;BME280;10981;45.462;10.974;2022-07-30T04:45:39;100424.50;;;19.44;100.00
21640;BME280;10981;45.462;10.974;2022-07-30T04:48:07;100426.41;;;19.50;100.00
21640;BME280;10981;45.462;10.974;2022-07-30T04:51:00;100422.72;;;19.51;100.00
21640;BME280;10981;45.462;10.974;2022-07-30T04:53:34;100418.78;;;19.69;100.00
21640;BME280;10981;45.462;10.974;2022-07-30T04:56:04;100417.34;;;19.66;100.00
21640;BME280;10981;45.462;10.974;2022-07-30T04:58:34;100416.13;;;19.69;100.00
21640;BME280;10981;45.462;10.974;2022-07-30T05:01:04;100418.13;;;19.82;100.00
21640;BME280;10981;45.462;10.974;2022-07-30T05:03:36;100418.69;;;19.99;100.00
21640;BME280;10981;45.462;10.974;2022-07-30T05:06:07;100422.50;;;20.18;100.00
21640;BME280;10981;45.462;10.974;2022-07-30T05:08:39;100418.06;;;20.25;100.00
21640;BME280;10981;45.462;10.974;2022-07-30T05:11:14;100409.56;;;20.36;100.00
21640;BME280;10981;45.462;10.974;2022-07-30T05:13:44;100411.25;;;20.44;100.00
21640;BME280;10981;45.462;10.974;2022-07-30T05:16:14;100414.88;;;20.36;100.00
21640;BME280;10981;45.462;10.974;2022-07-30T05:18:44;100415.66;;;20.30;100.00
21640;BME280;10981;45.462;10.974;2022-07-30T05:21:13;100414.81;;;20.30;100.00
21640;BME280;10981;45.462;10.974;2022-07-30T05:23:45;100424.94;;;20.48;100.00
21640;BME280;10981;45.462;10.974;2022-07-30T05:26:38;100420.03;;;20.51;100.00
21640;BME280;10981;45.462;10.974;2022-07-30T05:29:08;100411.69;;;20.54;100.00
21640;BME280;10981;45.462;10.974;2022-07-30T05:32:07;100400.16;;;20.76;100.00
21640;BME280;10981;45.462;10.974;2022-07-30T05:34:36;100411.06;;;20.87;100.00
21640;BME280;10981;45.462;10.974;2022-07-30T05:37:06;100414.97;;;20.92;100.00
21640;BME280;10981;45.462;10.974;2022-07-30T05:39:37;100408.66;;;21.06;100.00
21640;BME280;10981;45.462;10.974;2022-07-30T05:42:51;100413.41;;;21.17;100.00
21640;BME280;10981;45.462;10.974;2022-07-30T05:45:20;100416.69;;;21.26;100.00
21640;BME280;10981;45.462;10.974;2022-07-30T05:47:48;100421.22;;;21.39;100.00
21640;BME280;10981;45.462;10.974;2022-07-30T05:50:17;100423.94;;;21.52;100.00
21640;BME280;10981;45.462;10.974;2022-07-30T05:52:45;100424.16;;;21.64;100.00
21640;BME280;10981;45.462;10.974;2022-07-30T05:55:37;100426.22;;;21.69;100.00
21640;BME280;10981;45.462;10.974;2022-07-30T05:58:35;100419.47;;;21.80;100.00
21640;BME280;10981;45.462;10.974;2022-07-30T06:01:03;100430.34;;;21.92;100.00
21640;BME280;10981;45.462;10.974;2022-07-30T06:03:32;100436.88;;;21.82;100.00
21640;BME280;10981;45.462;10.974;2022-07-30T06:06:21;100436.88;;;22.02;100.00
21640;BME280;10981;45.462;10.974;2022-07-30T06:08:51;100435.84;;;22.10;100.00
21640;BME280;10981;45.462;10.974;2022-07-30T06:11:19;100438.72;;;22.15;100.00
21640;BME280;10981;45.462;10.974;2022-07-30T06:13:47;100440.53;;;22.28;100.00
21640;BME280;10981;45.462;10.974;2022-07-30T06:16:19;100438.91;;;22.47;100.00
21640;BME280;10981;45.462;10.974;2022-07-30T06:18:47;100440.56;;;22.42;100.00
21640;BME280;10981;45.462;10.974;2022-07-30T06:21:29;100439.91;;;22.46;100.00
21640;BME280;10981;45.462;10.974;2022-07-30T06:24:18;100460.59;;;22.58;100.00
21640;BME280;10981;45.462;10.974;2022-07-30T06:26:58;100449.88;;;22.78;100.00
21640;BME280;10981;45.462;10.974;2022-07-30T06:29:28;100456.41;;;22.95;100.00
21640;BME280;10981;45.462;10.974;2022-07-30T06:31:57;100457.59;;;22.99;100.00
21640;BME280;10981;45.462;10.974;2022-07-30T06:34:25;100454.53;;;23.02;100.00
21640;BME280;10981;45.462;10.974;2022-07-30T06:36:53;100453.19;;;23.25;100.00
21640;BME280;10981;45.462;10.974;2022-07-30T06:39:21;100459.84;;;23.48;100.00
21640;BME280;10981;45.462;10.974;2022-07-30T06:42:28;100441.03;;;23.68;100.00
21640;BME280;10981;45.462;10.974;2022-07-30T06:45:17;100443.91;;;23.98;100.00
21640;BME280;10981;45.462;10.974;2022-07-30T06:48:20;100454.91;;;24.09;100.00
21640;BME280;10981;45.462;10.974;2022-07-30T06:50:49;100453.97;;;24.22;100.00
21640;BME280;10981;45.462;10.974;2022-07-30T06:53:17;100453.59;;;24.18;100.00
21640;BME280;10981;45.462;10.974;2022-07-30T06:56:18;100451.88;;;25.05;100.00
21640;BME280;10981;45.462;10.974;2022-07-30T06:58:51;100453.53;;;26.02;100.00
21640;BME280;10981;45.462;10.974;2022-07-30T07:01:37;100447.47;;;27.99;100.00
21640;BME280;10981;45.462;10.974;2022-07-30T07:04:06;100449.25;;;28.27;100.00
21640;BME280;10981;45.462;10.974;2022-07-30T07:06:38;100449.44;;;28.43;100.00
21640;BME280;10981;45.462;10.974;2022-07-30T07:09:10;100447.16;;;28.51;100.00
21640;BME280;10981;45.462;10.974;2022-07-30T07:11:46;100450.81;;;28.23;100.00
21640;BME280;10981;45.462;10.974;2022-07-30T07:14:18;100449.59;;;28.14;100.00
21640;BME280;10981;45.462;10.974;2022-07-30T07:16:47;100446.69;;;28.37;100.00
21640;BME280;10981;45.462;10.974;2022-07-30T07:19:36;100446.22;;;29.34;95.14
21640;BME280;10981;45.462;10.974;2022-07-30T07:22:26;100445.41;;;29.94;90.33
21640;BME280;10981;45.462;10.974;2022-07-30T07:24:55;100438.81;;;29.84;95.12
21640;BME280;10981;45.462;10.974;2022-07-30T07:27:27;100440.78;;;29.89;93.34
21640;BME280;10981;45.462;10.974;2022-07-30T07:29:59;100450.94;;;30.68;89.87
21640;BME280;10981;45.462;10.974;2022-07-30T07:32:34;100453.72;;;30.93;85.42
21640;BME280;10981;45.462;10.974;2022-07-30T07:35:04;100454.38;;;32.04;82.40
21640;BME280;10981;45.462;10.974;2022-07-30T07:37:35;100443.31;;;31.95;81.30
21640;BME280;10981;45.462;10.974;2022-07-30T07:40:06;100454.53;;;30.94;85.80
21640;BME280;10981;45.462;10.974;2022-07-30T07:42:41;100455.00;;;29.84;84.20
21640;BME280;10981;45.462;10.974;2022-07-30T07:45:10;100450.38;;;29.20;86.51
21640;BME280;10981;45.462;10.974;2022-07-30T07:47:49;100449.69;;;29.30;89.67
21640;BME280;10981;45.462;10.974;2022-07-30T07:50:59;100457.09;;;29.45;85.53
21640;BME280;10981;45.462;10.974;2022-07-30T07:53:31;100446.56;;;30.08;81.83
21640;BME280;10981;45.462;10.974;2022-07-30T07:56:00;100455.16;;;29.35;86.11
21640;BME280;10981;45.462;10.974;2022-07-30T07:58:29;100464.28;;;29.12;86.32
21640;BME280;10981;45.462;10.974;2022-07-30T08:01:01;100465.75;;;28.97;89.49
21640;BME280;10981;45.462;10.974;2022-07-30T08:03:58;100462.97;;;28.48;94.96
21640;BME280;10981;45.462;10.974;2022-07-30T08:06:59;100462.13;;;29.09;94.83
21640;BME280;10981;45.462;10.974;2022-07-30T08:09:50;100469.84;;;28.61;92.13
21640;BME280;10981;45.462;10.974;2022-07-30T08:12:27;100469.75;;;28.73;95.90
21640;BME280;10981;45.462;10.974;2022-07-30T08:15:22;100472.41;;;28.90;97.88
21640;BME280;10981;45.462;10.974;2022-07-30T08:18:08;100478.91;;;28.94;96.00
21640;BME280;10981;45.462;10.974;2022-07-30T08:21:00;100479.09;;;28.87;97.44
21640;BME280;10981;45.462;10.974;2022-07-30T08:23:34;100480.16;;;28.47;94.36
21640;BME280;10981;45.462;10.974;2022-07-30T08:26:09;100480.75;;;28.32;97.97
21640;BME280;10981;45.462;10.974;2022-07-30T08:28:37;100483.56;;;27.40;99.38
21640;BME280;10981;45.462;10.974;2022-07-30T08:31:07;100483.03;;;27.72;100.00
21640;BME280;10981;45.462;10.974;2022-07-30T08:33:36;100484.13;;;27.71;100.00
21640;BME280;10981;45.462;10.974;2022-07-30T08:36:05;100486.25;;;28.20;100.00
21640;BME280;10981;45.462;10.974;2022-07-30T08:38:38;100490.69;;;28.48;96.52
21640;BME280;10981;45.462;10.974;2022-07-30T08:41:08;100486.19;;;28.54;95.94
21640;BME280;10981;45.462;10.974;2022-07-30T08:43:40;100481.28;;;28.51;97.51
21640;BME280;10981;45.462;10.974;2022-07-30T08:46:10;100482.00;;;28.41;93.96
21640;BME280;10981;45.462;10.974;2022-07-30T08:49:02;100484.16;;;28.44;97.32
21640;BME280;10981;45.462;10.974;2022-07-30T08:51:38;100484.53;;;28.70;96.68
21640;BME280;10981;45.462;10.974;2022-07-30T08:54:30;100482.00;;;28.80;94.07
21640;BME280;10981;45.462;10.974;2022-07-30T08:56:59;100489.19;;;28.75;95.67
21640;BME280;10981;45.462;10.974;2022-07-30T08:59:28;100487.97;;;28.65;96.01
21640;BME280;10981;45.462;10.974;2022-07-30T09:02:18;100483.47;;;28.71;100.00
21640;BME280;10981;45.462;10.974;2022-07-30T09:05:05;100483.25;;;28.55;96.73
21640;BME280;10981;45.462;10.974;2022-07-30T09:07:34;100484.25;;;28.66;97.87
21640;BME280;10981;45.462;10.974;2022-07-30T09:10:05;100484.47;;;29.09;99.12
21640;BME280;10981;45.462;10.974;2022-07-30T09:12:41;100485.09;;;28.72;93.76
21640;BME280;10981;45.462;10.974;2022-07-30T09:15:15;100494.31;;;28.98;93.99
21640;BME280;10981;45.462;10.974;2022-07-30T09:20:24;100491.34;;;29.44;95.51
21640;BME280;10981;45.462;10.974;2022-07-30T09:22:57;100484.03;;;29.17;92.86
21640;BME280;10981;45.462;10.974;2022-07-30T09:25:48;100486.53;;;28.80;89.79
21640;BME280;10981;45.462;10.974;2022-07-30T09:28:35;100484.16;;;29.88;83.74
21640;BME280;10981;45.462;10.974;2022-07-30T09:31:19;100488.06;;;30.45;78.02
21640;BME280;10981;45.462;10.974;2022-07-30T09:34:23;100490.19;;;30.91;77.80
21640;BME280;10981;45.462;10.974;2022-07-30T09:40:17;100489.34;;;30.85;80.39
21640;BME280;10981;45.462;10.974;2022-07-30T09:43:09;100478.34;;;30.44;78.66
21640;BME280;10981;45.462;10.974;2022-07-30T09:45:51;100484.47;;;30.34;86.26
21640;BME280;10981;45.462;10.974;2022-07-30T09:48:27;100480.34;;;30.21;82.08
21640;BME280;10981;45.462;10.974;2022-07-30T09:50:58;100487.28;;;30.49;77.47
21640;BME280;10981;45.462;10.974;2022-07-30T09:53:28;100471.69;;;30.57;80.89
21640;BME280;10981;45.462;10.974;2022-07-30T09:56:00;100474.06;;;31.11;75.27
21640;BME280;10981;45.462;10.974;2022-07-30T09:58:40;100471.94;;;31.50;73.67
21640;BME280;10981;45.462;10.974;2022-07-30T10:01:13;100480.09;;;31.65;74.88
21640;BME280;10981;45.462;10.974;2022-07-30T10:04:08;100473.56;;;31.45;70.58
21640;BME280;10981;45.462;10.974;2022-07-30T10:06:56;100465.50;;;31.76;76.46
21640;BME280;10981;45.462;10.974;2022-07-30T10:09:34;100457.88;;;32.04;70.49
21640;BME280;10981;45.462;10.974;2022-07-30T10:12:08;100461.69;;;31.88;69.99
21640;BME280;10981;45.462;10.974;2022-07-30T10:14:43;100459.50;;;31.49;71.87
21640;BME280;10981;45.462;10.974;2022-07-30T10:17:15;100460.63;;;31.53;70.57
21640;BME280;10981;45.462;10.974;2022-07-30T10:20:08;100456.53;;;31.40;68.60
21640;BME280;10981;45.462;10.974;2022-07-30T10:22:58;100458.69;;;31.22;70.27
21640;BME280;10981;45.462;10.974;2022-07-30T10:25:38;100450.59;;;31.38;70.51
21640;BME280;10981;45.462;10.974;2022-07-30T10:28:41;100459.00;;;31.83;68.76
21640;BME280;10981;45.462;10.974;2022-07-30T10:31:13;100456.00;;;32.10;66.32
21640;BME280;10981;45.462;10.974;2022-07-30T10:34:03;100453.59;;;31.67;65.92
21640;BME280;10981;45.462;10.974;2022-07-30T10:36:32;100456.00;;;31.94;69.29
21640;BME280;10981;45.462;10.974;2022-07-30T10:39:02;100457.88;;;32.15;62.10
21640;BME280;10981;45.462;10.974;2022-07-30T10:47:21;100453.78;;;32.27;63.04
21640;BME280;10981;45.462;10.974;2022-07-30T10:50:13;100444.56;;;32.39;62.02
21640;BME280;10981;45.462;10.974;2022-07-30T10:52:53;100447.47;;;32.58;63.54
21640;BME280;10981;45.462;10.974;2022-07-30T10:55:28;100445.59;;;32.58;60.51
21640;BME280;10981;45.462;10.974;2022-07-30T10:58:11;100444.44;;;32.65;60.34
21640;BME280;10981;45.462;10.974;2022-07-30T11:08:43;100446.44;;;33.44;59.73
21640;BME280;10981;45.462;10.974;2022-07-30T11:14:09;100449.00;;;33.35;55.14
21640;BME280;10981;45.462;10.974;2022-07-30T11:19:11;100438.91;;;33.40;57.10
21640;BME280;10981;45.462;10.974;2022-07-30T11:22:29;100433.44;;;33.46;58.65
21640;BME280;10981;45.462;10.974;2022-07-30T11:25:09;100442.66;;;34.09;57.01
21640;BME280;10981;45.462;10.974;2022-07-30T11:27:45;100434.88;;;34.21;54.59
21640;BME280;10981;45.462;10.974;2022-07-30T11:35:32;100437.97;;;34.14;56.49
21640;BME280;10981;45.462;10.974;2022-07-30T11:38:12;100437.13;;;34.43;56.53
21640;BME280;10981;45.462;10.974;2022-07-30T11:46:14;100421.69;;;34.38;54.09
21640;BME280;10981;45.462;10.974;2022-07-30T11:49:02;100422.31;;;34.54;50.58
21640;BME280;10981;45.462;10.974;2022-07-30T11:51:44;100423.28;;;34.64;52.28
21640;BME280;10981;45.462;10.974;2022-07-30T11:54:13;100421.28;;;34.69;47.52
21640;BME280;10981;45.462;10.974;2022-07-30T11:57:02;100420.94;;;34.76;46.87
21640;BME280;10981;45.462;10.974;2022-07-30T11:59:31;100419.72;;;35.07;48.55
21640;BME280;10981;45.462;10.974;2022-07-30T12:02:26;100419.69;;;35.73;46.33
21640;BME280;10981;45.462;10.974;2022-07-30T12:04:55;100419.78;;;35.34;45.47
21640;BME280;10981;45.462;10.974;2022-07-30T12:07:23;100425.53;;;35.33;42.55
21640;BME280;10981;45.462;10.974;2022-07-30T12:10:12;100410.47;;;35.22;42.69
21640;BME280;10981;45.462;10.974;2022-07-30T12:12:43;100410.47;;;35.22;42.20
21640;BME280;10981;45.462;10.974;2022-07-30T12:15:29;100404.16;;;35.26;41.21
21640;BME280;10981;45.462;10.974;2022-07-30T12:18:01;100413.84;;;35.32;41.88
21640;BME280;10981;45.462;10.974;2022-07-30T12:21:04;100413.50;;;35.39;40.79
21640;BME280;10981;45.462;10.974;2022-07-30T12:23:32;100408.59;;;35.88;38.37
21640;BME280;10981;45.462;10.974;2022-07-30T12:26:02;100406.72;;;35.83;40.94
21640;BME280;10981;45.462;10.974;2022-07-30T12:28:32;100411.50;;;36.06;37.81
21640;BME280;10981;45.462;10.974;2022-07-30T12:31:04;100417.25;;;36.04;39.21
21640;BME280;10981;45.462;10.974;2022-07-30T12:33:33;100415.50;;;35.66;40.48
21640;BME280;10981;45.462;10.974;2022-07-30T12:36:08;100408.75;;;36.33;39.05
21640;BME280;10981;45.462;10.974;2022-07-30T12:38:44;100407.84;;;36.66;35.64
21640;BME280;10981;45.462;10.974;2022-07-30T12:41:19;100394.81;;;37.00;35.46
21640;BME280;10981;45.462;10.974;2022-07-30T12:43:54;100394.44;;;37.15;37.95
21640;BME280;10981;45.462;10.974;2022-07-30T12:46:26;100395.88;;;37.67;37.99
21640;BME280;10981;45.462;10.974;2022-07-30T12:49:00;100400.72;;;37.16;35.30
21640;BME280;10981;45.462;10.974;2022-07-30T12:51:50;100397.72;;;37.26;35.63
21640;BME280;10981;45.462;10.974;2022-07-30T12:54:19;100398.97;;;37.42;34.46
21640;BME280;10981;45.462;10.974;2022-07-30T12:57:05;100403.66;;;37.28;33.41
21640;BME280;10981;45.462;10.974;2022-07-30T12:59:34;100395.72;;;37.18;33.52
21640;BME280;10981;45.462;10.974;2022-07-30T13:02:05;100398.38;;;37.32;34.53
21640;BME280;10981;45.462;10.974;2022-07-30T13:04:33;100386.91;;;37.35;32.45
21640;BME280;10981;45.462;10.974;2022-07-30T13:07:21;100396.50;;;37.95;33.38
21640;BME280;10981;45.462;10.974;2022-07-30T13:10:11;100395.28;;;37.78;31.65
21640;BME280;10981;45.462;10.974;2022-07-30T13:12:45;100379.50;;;37.67;30.27
21640;BME280;10981;45.462;10.974;2022-07-30T13:15:18;100383.25;;;37.79;33.26
21640;BME280;10981;45.462;10.974;2022-07-30T13:17:47;100378.91;;;37.78;32.87
21640;BME280;10981;45.462;10.974;2022-07-30T13:20:18;100374.28;;;37.48;31.88
21640;BME280;10981;45.462;10.974;2022-07-30T13:22:46;100377.34;;;37.55;33.15
21640;BME280;10981;45.462;10.974;2022-07-30T13:25:14;100374.59;;;37.46;31.71
21640;BME280;10981;45.462;10.974;2022-07-30T13:27:43;100376.97;;;37.16;33.30
21640;BME280;10981;45.462;10.974;2022-07-30T13:30:11;100365.25;;;36.93;34.08
21640;BME280;10981;45.462;10.974;2022-07-30T13:32:39;100367.22;;;37.24;34.63
21640;BME280;10981;45.462;10.974;2022-07-30T13:35:08;100367.16;;;37.15;35.57
21640;BME280;10981;45.462;10.974;2022-07-30T13:37:36;100364.50;;;37.46;34.72
21640;BME280;10981;45.462;10.974;2022-07-30T13:40:06;100368.28;;;37.37;37.40
21640;BME280;10981;45.462;10.974;2022-07-30T13:42:34;100360.47;;;36.98;36.24
21640;BME280;10981;45.462;10.974;2022-07-30T13:45:03;100358.44;;;37.04;36.72
21640;BME280;10981;45.462;10.974;2022-07-30T13:47:31;100350.97;;;37.41;35.35
21640;BME280;10981;45.462;10.974;2022-07-30T13:49:59;100353.44;;;37.29;36.45
21640;BME280;10981;45.462;10.974;2022-07-30T13:52:27;100355.09;;;36.85;36.55
21640;BME280;10981;45.462;10.974;2022-07-30T13:54:56;100346.19;;;37.47;35.41
21640;BME280;10981;45.462;10.974;2022-07-30T13:57:24;100347.38;;;37.32;34.82